createdAt,value
2017-04-24T00:00:23.508Z,3.14
2017-04-24T00:01:45.220Z,3.18
2017-04-24T00:03:07.450Z,3.2
2017-04-24T00:04:29.588Z,3.24
2017-04-24T00:05:51.514Z,3.2
2017-04-24T00:07:13.207Z,3.15
2017-04-24T00:08:34.391Z,3.23
2017-04-24T00:09:56.558Z,3.18
2017-04-24T00:11:19.009Z,3.23
2017-04-24T00:12:41.530Z,3.15
2017-04-24T00:14:03.379Z,3.24
2017-04-24T00:15:25.521Z,3.18
2017-04-24T00:16:48.022Z,3.18
2017-04-24T00:18:09.830Z,3.18
2017-04-24T00:19:31.982Z,3.14
2017-04-24T00:20:53.789Z,3.18
2017-04-24T00:22:15.388Z,3.17
2017-04-24T00:23:36.889Z,3.14
2017-04-24T00:24:59.028Z,3.2
2017-04-24T00:26:20.855Z,3.14
2017-04-24T00:27:43.056Z,3.2
2017-04-24T00:29:04.578Z,3.18
2017-04-24T00:30:26.401Z,3.17
2017-04-24T00:31:47.909Z,3.17
2017-04-24T00:33:10.354Z,3.23
2017-04-24T00:34:32.179Z,3.13
2017-04-24T00:35:54.023Z,3.17
2017-04-24T00:37:15.548Z,3.17
2017-04-24T00:38:37.351Z,3.21
2017-04-24T00:39:58.857Z,3.18
2017-04-24T00:41:21.028Z,3.18
2017-04-24T00:42:42.870Z,3.13
2017-04-24T00:44:05.648Z,3.13
2017-04-24T00:45:26.885Z,3.18
2017-04-24T00:46:48.761Z,3.15
2017-04-24T00:48:10.965Z,3.15
2017-04-24T00:49:33.146Z,3.24
2017-04-24T00:50:54.978Z,3.29
2017-04-24T00:52:16.477Z,3.32
2017-04-24T00:53:38.619Z,3.28
2017-04-24T00:55:01.098Z,3.35
2017-04-24T00:56:23.576Z,3.33
2017-04-24T00:57:45.754Z,3.31
2017-04-24T00:59:08.254Z,3.5
2017-04-24T01:00:30.721Z,3.45
2017-04-24T01:01:52.538Z,3.4
2017-04-24T01:03:14.421Z,3.42
2017-04-24T01:04:36.910Z,3.45
2017-04-24T01:05:59.350Z,3.43
2017-04-24T01:07:21.500Z,3.48
2017-04-24T01:08:43.619Z,3.48
2017-04-24T01:10:05.756Z,3.43
2017-04-24T01:11:27.813Z,3.4
2017-04-24T01:12:49.958Z,3.52
2017-04-24T01:14:11.889Z,3.4
2017-04-24T01:15:33.716Z,3.39
2017-04-24T01:16:55.899Z,3.47
2017-04-24T01:18:18.046Z,3.33
2017-04-24T01:19:40.172Z,3.4
2017-04-24T01:21:01.696Z,3.42
2017-04-24T01:22:24.167Z,3.43
2017-04-24T01:23:45.682Z,3.31
2017-04-24T01:25:07.877Z,3.47
2017-04-24T01:26:29.069Z,3.5
2017-04-24T01:27:51.509Z,3.42
2017-04-24T01:29:13.658Z,3.48
2017-04-24T01:30:35.497Z,3.43
2017-04-24T01:31:57.060Z,3.52
2017-04-24T01:33:19.199Z,3.55
2017-04-24T01:34:40.412Z,3.61
2017-04-24T01:36:02.545Z,3.66
2017-04-24T01:37:24.769Z,3.68
2017-04-24T01:38:46.893Z,3.6
2017-04-24T01:40:09.049Z,3.68
2017-04-24T01:41:30.629Z,3.78
2017-04-24T01:42:52.789Z,3.76
2017-04-24T01:44:14.587Z,3.83
2017-04-24T01:45:36.200Z,3.88
2017-04-24T01:46:58.058Z,3.9
2017-04-24T01:48:19.899Z,4.05
2017-04-24T01:49:42.388Z,4.02
2017-04-24T01:51:03.592Z,4.06
2017-04-24T01:52:24.775Z,4.05
2017-04-24T01:53:46.289Z,4.12
2017-04-24T01:55:09.100Z,4.15
2017-04-24T01:56:31.237Z,4.11
2017-04-24T01:57:53.075Z,4.08
2017-04-24T01:59:15.229Z,4.16
2017-04-24T02:00:37.748Z,4.08
2017-04-24T02:01:59.876Z,4.11
2017-04-24T02:03:22.039Z,4.2
2017-04-24T02:04:43.618Z,4.12
2017-04-24T02:06:06.134Z,4.18
2017-04-24T02:07:27.958Z,4.16
2017-04-24T02:08:50.109Z,4.18
2017-04-24T02:10:11.352Z,4.15
2017-04-24T02:11:33.530Z,4.2
2017-04-24T02:12:55.370Z,4.26
2017-04-24T02:14:17.904Z,4.22
2017-04-24T02:15:39.196Z,4.26
2017-04-24T02:17:01.677Z,4.23
2017-04-24T02:18:23.288Z,4.26
2017-04-24T02:19:45.229Z,4.24
2017-04-24T02:21:06.793Z,4.22
2017-04-24T02:22:29.058Z,4.36
2017-04-24T02:23:50.252Z,4.32
2017-04-24T02:25:11.745Z,4.32
2017-04-24T02:26:33.582Z,4.32
2017-04-24T02:27:55.856Z,4.32
2017-04-24T02:29:17.996Z,4.29
2017-04-24T02:30:39.855Z,4.36
2017-04-24T02:32:01.977Z,4.27
2017-04-24T02:33:24.101Z,4.32
2017-04-24T02:34:45.963Z,4.32
2017-04-24T02:36:08.118Z,4.33
2017-04-24T02:37:30.319Z,4.37
2017-04-24T02:38:52.439Z,4.4
2017-04-24T02:40:14.589Z,4.36
2017-04-24T02:41:36.407Z,4.33
2017-04-24T02:42:57.916Z,4.4
2017-04-24T02:44:20.438Z,4.33
2017-04-24T02:45:42.586Z,4.37
2017-04-24T02:47:04.408Z,4.37
2017-04-24T02:48:26.331Z,4.34
2017-04-24T02:49:48.609Z,4.34
2017-04-24T02:51:10.111Z,4.4
2017-04-24T02:52:31.987Z,4.4
2017-04-24T02:53:54.198Z,4.32
2017-04-24T02:55:16.387Z,4.4
2017-04-24T02:56:37.579Z,4.4
2017-04-24T02:57:59.438Z,4.45
2017-04-24T02:59:20.949Z,4.5
2017-04-24T03:00:43.298Z,4.5
2017-04-24T03:02:05.211Z,4.6
2017-04-24T03:03:27.879Z,4.59
2017-04-24T03:04:49.380Z,4.62
2017-04-24T03:06:11.865Z,4.78
2017-04-24T03:07:33.880Z,4.82
2017-04-24T03:08:55.737Z,4.77
2017-04-24T03:10:17.600Z,4.92
2017-04-24T03:11:40.437Z,4.97
2017-04-24T03:13:01.639Z,4.94
2017-04-24T03:14:23.843Z,4.96
2017-04-24T03:15:45.362Z,4.99
2017-04-24T03:17:07.853Z,5.02
2017-04-24T03:18:29.059Z,5.06
2017-04-24T03:19:51.196Z,4.97
2017-04-24T03:21:13.662Z,4.97
2017-04-24T03:22:35.568Z,4.99
2017-04-24T03:23:58.156Z,4.99
2017-04-24T03:25:19.344Z,5.02
2017-04-24T03:26:41.172Z,4.92
2017-04-24T03:28:03.248Z,4.99
2017-04-24T03:29:25.079Z,4.99
2017-04-24T03:30:47.246Z,5
2017-04-24T03:32:09.472Z,5.03
2017-04-24T03:33:31.715Z,4.97
2017-04-24T03:34:53.599Z,4.94
2017-04-24T03:36:15.837Z,4.96
2017-04-24T03:37:37.658Z,4.88
2017-04-24T03:38:59.463Z,4.96
2017-04-24T03:40:22.112Z,4.99
2017-04-24T03:41:43.927Z,4.96
2017-04-24T03:43:05.097Z,4.99
2017-04-24T03:44:27.287Z,4.99
2017-04-24T03:45:49.448Z,5.03
2017-04-24T03:47:11.594Z,5.04
2017-04-24T03:48:33.413Z,5.03
2017-04-24T03:49:55.228Z,5.02
2017-04-24T03:51:17.688Z,5.09
2017-04-24T03:52:39.519Z,5.09
2017-04-24T03:54:01.659Z,5.09
2017-04-24T03:55:23.509Z,5.13
2017-04-24T03:57:17.944Z,5.2
2017-04-24T03:58:39.758Z,5.17
2017-04-24T04:00:01.008Z,5.22
2017-04-24T04:01:23.481Z,5.21
2017-04-24T04:02:45.287Z,5.17
2017-04-24T04:04:06.879Z,5.24
2017-04-24T04:05:28.714Z,5.24
2017-04-24T04:06:50.888Z,5.3
2017-04-24T04:08:12.726Z,5.25
2017-04-24T04:09:34.879Z,5.27
2017-04-24T04:11:28.986Z,5.27
2017-04-24T04:12:51.568Z,5.27
2017-04-24T04:14:14.018Z,5.42
2017-04-24T04:15:36.141Z,5.42
2017-04-24T04:16:57.939Z,5.38
2017-04-24T04:18:19.450Z,5.53
2017-04-24T04:19:41.640Z,5.36
2017-04-24T04:21:03.468Z,5.43
2017-04-24T04:22:25.909Z,5.39
2017-04-24T04:23:47.741Z,5.45
2017-04-24T04:25:09.315Z,5.45
2017-04-24T04:26:31.159Z,5.48
2017-04-24T04:27:53.543Z,5.54
2017-04-24T04:29:15.698Z,5.53
2017-04-24T04:30:37.527Z,5.53
2017-04-24T04:31:59.037Z,5.49
2017-04-24T04:33:21.607Z,5.61
2017-04-24T04:34:44.063Z,5.63
2017-04-24T04:36:06.209Z,5.68
2017-04-24T04:37:28.649Z,5.68
2017-04-24T04:38:51.192Z,5.67
2017-04-24T04:40:12.744Z,5.72
2017-04-24T04:41:34.558Z,5.83
2017-04-24T04:42:56.997Z,5.82
2017-04-24T04:44:19.223Z,5.9
2017-04-24T04:45:41.084Z,5.83
2017-04-24T04:47:02.904Z,6.01
2017-04-24T04:48:24.726Z,5.94
2017-04-24T04:49:47.535Z,5.97
2017-04-24T04:51:09.738Z,5.99
2017-04-24T04:52:31.565Z,6.08
2017-04-24T04:53:53.086Z,6.06
2017-04-24T04:55:15.474Z,6.18
2017-04-24T04:56:37.615Z,6.06
2017-04-24T04:57:59.516Z,6.14
2017-04-24T04:59:21.738Z,6.22
2017-04-24T05:00:44.184Z,6.22
2017-04-24T05:02:06.143Z,6.27
2017-04-24T05:03:28.163Z,6.3
2017-04-24T05:04:50.315Z,6.37
2017-04-24T05:06:12.898Z,6.44
2017-04-24T05:07:35.091Z,6.43
2017-04-24T05:08:57.261Z,6.54
2017-04-24T05:10:19.411Z,6.51
2017-04-24T05:11:41.945Z,6.58
2017-04-24T05:13:04.109Z,6.61
2017-04-24T05:14:26.244Z,6.54
2017-04-24T05:15:48.410Z,6.62
2017-04-24T05:17:10.532Z,6.55
2017-04-24T05:18:32.700Z,6.58
2017-04-24T05:19:54.548Z,6.67
2017-04-24T05:21:16.377Z,6.74
2017-04-24T05:22:38.940Z,6.67
2017-04-24T05:24:01.068Z,6.73
2017-04-24T05:25:23.243Z,6.8
2017-04-24T05:26:44.993Z,6.74
2017-04-24T05:28:07.441Z,6.87
2017-04-24T05:29:29.598Z,6.99
2017-04-24T05:30:51.522Z,6.99
2017-04-24T05:32:13.752Z,7.02
2017-04-24T05:33:36.529Z,6.95
2017-04-24T05:34:58.698Z,6.99
2017-04-24T05:36:20.215Z,6.95
2017-04-24T05:37:42.391Z,6.87
2017-04-24T05:39:04.846Z,7.03
2017-04-24T05:40:26.363Z,7.13
2017-04-24T05:41:48.190Z,7.13
2017-04-24T05:43:10.349Z,7.2
2017-04-24T05:44:32.808Z,7.15
2017-04-24T05:45:54.313Z,7.12
2017-04-24T05:47:16.448Z,7.16
2017-04-24T05:48:38.939Z,7.1
2017-04-24T05:50:01.027Z,7.23
2017-04-24T05:51:22.531Z,7.27
2017-04-24T05:52:44.461Z,7.3
2017-04-24T05:54:06.286Z,7.4
2017-04-24T05:55:28.497Z,7.46
2017-04-24T05:56:50.342Z,7.6
2017-04-24T05:58:12.832Z,7.71
2017-04-24T05:59:34.378Z,7.9
2017-04-24T06:00:56.183Z,8.01
2017-04-24T06:02:17.425Z,8
2017-04-24T06:03:39.951Z,8.01
2017-04-24T06:05:02.427Z,8.01
2017-04-24T06:06:24.564Z,7.93
2017-04-24T06:07:46.387Z,7.98
2017-04-24T06:09:08.538Z,8.04
2017-04-24T06:10:31.027Z,7.98
2017-04-24T06:11:53.538Z,8
2017-04-24T06:13:15.378Z,8
2017-04-24T06:14:37.280Z,8.04
2017-04-24T06:15:59.238Z,8
2017-04-24T06:17:21.365Z,7.97
2017-04-24T06:18:43.202Z,7.98
2017-04-24T06:20:05.033Z,8.04
2017-04-24T06:21:27.519Z,8.1
2017-04-24T06:22:50.376Z,8.05
2017-04-24T06:24:12.190Z,8.19
2017-04-24T06:25:34.759Z,8.16
2017-04-24T06:26:57.424Z,8.28
2017-04-24T06:28:19.978Z,8.33
2017-04-24T06:29:42.129Z,8.48
2017-04-24T06:31:04.606Z,8.68
2017-04-24T06:32:25.945Z,8.77
2017-04-24T06:33:47.394Z,8.76
2017-04-24T06:35:09.849Z,8.95
2017-04-24T06:36:31.998Z,8.94
2017-04-24T06:37:53.194Z,9.04
2017-04-24T06:39:15.637Z,9.11
2017-04-24T06:40:37.898Z,9.32
2017-04-24T06:42:00.080Z,9.4
2017-04-24T06:43:21.600Z,9.5
2017-04-24T06:44:44.173Z,9.56
2017-04-24T06:46:06.317Z,9.69
2017-04-24T06:47:28.486Z,9.83
2017-04-24T06:48:50.633Z,10.15
2017-04-24T06:50:13.489Z,10.45
2017-04-24T06:51:35.246Z,10.63
2017-04-24T06:52:57.079Z,10.61
2017-04-24T06:54:19.578Z,10.84
2017-04-24T06:55:41.769Z,11.03
2017-04-24T06:57:03.289Z,10.96
2017-04-24T06:58:25.115Z,10.78
2017-04-24T06:59:47.636Z,10.78
2017-04-24T07:01:09.925Z,10.91
2017-04-24T07:02:31.841Z,11.18
2017-04-24T07:03:53.405Z,11.35
2017-04-24T07:05:15.229Z,11.73
2017-04-24T07:06:37.619Z,11.99
2017-04-24T07:07:59.356Z,12.05
2017-04-24T07:09:21.554Z,11.65
2017-04-24T07:10:43.379Z,11.49
2017-04-24T07:12:05.817Z,11.25
2017-04-24T07:13:28.305Z,11.18
2017-04-24T07:14:50.648Z,11.24
2017-04-24T07:16:12.154Z,11.29
2017-04-24T07:17:34.294Z,11.35
2017-04-24T07:18:55.926Z,11.32
2017-04-24T07:20:17.424Z,11.37
2017-04-24T07:21:39.310Z,11.24
2017-04-24T07:23:01.448Z,11.33
2017-04-24T07:24:23.377Z,11.47
2017-04-24T07:25:45.637Z,11.62
2017-04-24T07:27:07.538Z,11.4
2017-04-24T07:28:29.956Z,11.54
2017-04-24T07:29:51.793Z,11.62
2017-04-24T07:31:12.998Z,11.8
2017-04-24T07:32:35.140Z,12.2
2017-04-24T07:33:58.056Z,12.31
2017-04-24T07:35:20.527Z,12.54
2017-04-24T07:36:42.347Z,13.22
2017-04-24T07:38:03.864Z,13.75
2017-04-24T07:39:26.196Z,14.37
2017-04-24T07:40:47.710Z,14.68
2017-04-24T07:42:08.958Z,14.15
2017-04-24T07:43:30.795Z,13.63
2017-04-24T07:44:52.927Z,13.51
2017-04-24T07:46:14.458Z,13.44
2017-04-24T07:47:36.290Z,13.41
2017-04-24T07:48:57.479Z,13.23
2017-04-24T07:50:19.966Z,13.15
2017-04-24T07:51:42.435Z,13.45
2017-04-24T07:53:04.598Z,13.66
2017-04-24T07:54:26.139Z,13.89
2017-04-24T07:55:48.018Z,13.96
2017-04-24T07:57:09.238Z,13.97
2017-04-24T07:58:31.509Z,13.85
2017-04-24T07:59:53.152Z,13.82
2017-04-24T08:01:15.960Z,14.03
2017-04-24T08:02:38.109Z,14
2017-04-24T08:04:00.108Z,13.85
2017-04-24T08:05:22.243Z,13.57
2017-04-24T08:06:44.379Z,13.38
2017-04-24T08:08:06.543Z,13.38
2017-04-24T08:09:28.412Z,13.36
2017-04-24T08:10:50.565Z,13.36
2017-04-24T08:12:12.733Z,13.46
2017-04-24T08:13:34.246Z,13.38
2017-04-24T08:14:55.458Z,13.29
2017-04-24T08:16:17.015Z,13.19
2017-04-24T08:17:39.129Z,13
2017-04-24T08:19:00.998Z,12.9
2017-04-24T08:20:22.581Z,13.2
2017-04-24T08:21:44.719Z,13.33
2017-04-24T08:23:07.123Z,13.41
2017-04-24T08:24:29.644Z,13.49
2017-04-24T08:25:51.498Z,13.48
2017-04-24T08:27:12.698Z,13.57
2017-04-24T08:28:35.143Z,13.84
2017-04-24T08:29:56.993Z,14.03
2017-04-24T08:31:19.564Z,14.45
2017-04-24T08:32:41.861Z,14.6
2017-04-24T08:34:04.010Z,14.62
2017-04-24T08:35:26.481Z,14.84
2017-04-24T08:36:48.644Z,14.81
2017-04-24T08:38:10.205Z,14.81
2017-04-24T08:39:32.665Z,14.75
2017-04-24T08:40:54.498Z,14.43
2017-04-24T08:42:17.029Z,14.29
2017-04-24T08:43:38.546Z,14.32
2017-04-24T08:45:00.398Z,14.22
2017-04-24T08:46:22.215Z,14.27
2017-04-24T08:47:44.060Z,14.24
2017-04-24T08:49:06.218Z,14.18
2017-04-24T08:50:28.358Z,14.18
2017-04-24T08:51:49.558Z,14.27
2017-04-24T08:53:11.728Z,14.36
2017-04-24T08:54:33.998Z,14.22
2017-04-24T08:55:56.243Z,14.36
2017-04-24T08:57:18.464Z,14.72
2017-04-24T08:58:40.297Z,14.8
2017-04-24T09:00:02.134Z,14.78
2017-04-24T09:01:24.708Z,14.81
2017-04-24T09:02:47.168Z,14.83
2017-04-24T09:04:08.378Z,14.72
2017-04-24T09:05:30.535Z,14.58
2017-04-24T09:06:53.046Z,14.6
2017-04-24T09:08:14.883Z,14.72
2017-04-24T09:09:37.411Z,15.06
2017-04-24T09:10:59.359Z,15.27
2017-04-24T09:12:21.999Z,15.46
2017-04-24T09:13:44.181Z,15.57
2017-04-24T09:15:06.592Z,15.64
2017-04-24T09:16:28.438Z,15.65
2017-04-24T09:17:50.969Z,16.15
2017-04-24T09:19:12.889Z,16.35
2017-04-24T09:20:35.094Z,16.63
2017-04-24T09:21:56.946Z,16.75
2017-04-24T09:23:18.752Z,16.52
2017-04-24T09:24:40.908Z,16.21
2017-04-24T09:26:03.075Z,15.94
2017-04-24T09:27:24.960Z,15.86
2017-04-24T09:28:47.082Z,15.84
2017-04-24T09:30:08.608Z,15.97
2017-04-24T09:31:30.508Z,15.76
2017-04-24T09:32:52.019Z,15.83
2017-04-24T09:34:14.268Z,16.11
2017-04-24T09:35:36.097Z,15.86
2017-04-24T09:36:58.238Z,15.32
2017-04-24T09:38:20.078Z,14.84
2017-04-24T09:39:41.542Z,14.62
2017-04-24T09:41:03.438Z,14.35
2017-04-24T09:42:25.616Z,14.12
2017-04-24T09:43:47.528Z,14.15
2017-04-24T09:45:10.357Z,14.18
2017-04-24T09:46:32.634Z,14.32
2017-04-24T09:47:54.798Z,14.8
2017-04-24T09:49:16.978Z,15.14
2017-04-24T09:50:39.487Z,15.57
2017-04-24T09:52:00.996Z,15.65
2017-04-24T09:53:22.514Z,15.78
2017-04-24T09:54:44.718Z,15.75
2017-04-24T09:56:07.424Z,15.75
2017-04-24T09:57:29.706Z,15.64
2017-04-24T09:58:51.876Z,15.17
2017-04-24T10:00:13.408Z,15.41
2017-04-24T10:01:36.236Z,15.62
2017-04-24T10:02:58.186Z,15.93
2017-04-24T10:04:20.385Z,16.01
2017-04-24T10:05:42.326Z,15.96
2017-04-24T10:07:04.718Z,15.68
2017-04-24T10:08:26.575Z,15.44
2017-04-24T10:09:48.407Z,15.2
2017-04-24T10:11:10.237Z,14.89
2017-04-24T10:12:32.375Z,14.77
2017-04-24T10:14:26.647Z,14.29
2017-04-24T10:15:48.798Z,14.28
2017-04-24T10:17:11.370Z,14.2
2017-04-24T10:18:33.767Z,14.2
2017-04-24T10:19:56.302Z,14.25
2017-04-24T10:21:18.468Z,14.27
2017-04-24T10:22:40.665Z,14.57
2017-04-24T10:24:02.487Z,14.64
2017-04-24T10:25:24.655Z,14.29
2017-04-24T10:26:46.787Z,14.24
2017-04-24T10:28:09.656Z,14.28
2017-04-24T10:29:31.492Z,14.68
2017-04-24T10:30:53.050Z,14.77
2017-04-24T10:32:15.208Z,14.75
2017-04-24T10:33:37.438Z,14.61
2017-04-24T10:34:59.646Z,14.47
2017-04-24T10:36:21.557Z,14.4
2017-04-24T10:37:44.065Z,14.69
2017-04-24T10:39:06.519Z,14.88
2017-04-24T10:40:27.783Z,14.99
2017-04-24T10:41:49.715Z,14.95
2017-04-24T10:43:11.551Z,14.99
2017-04-24T10:44:34.351Z,15.17
2017-04-24T10:45:56.825Z,15.39
2017-04-24T10:47:18.652Z,15.6
2017-04-24T10:48:39.545Z,15.75
2017-04-24T10:50:01.365Z,15.92
2017-04-24T10:51:22.567Z,15.94
2017-04-24T10:52:44.511Z,16.08
2017-04-24T10:54:06.658Z,16
2017-04-24T10:55:28.869Z,15.89
2017-04-24T10:56:51.051Z,15.97
2017-04-24T10:58:12.876Z,16.2
2017-04-24T10:59:34.407Z,16.08
2017-04-24T11:00:56.808Z,16.12
2017-04-24T11:02:18.643Z,15.86
2017-04-24T11:03:40.468Z,15.71
2017-04-24T11:05:02.318Z,15.59
2017-04-24T11:06:24.787Z,15.56
2017-04-24T11:07:47.265Z,15.32
2017-04-24T11:09:09.424Z,15.09
2017-04-24T11:10:31.385Z,14.99
2017-04-24T11:11:53.469Z,14.65
2017-04-24T11:13:15.971Z,14.61
2017-04-24T11:14:37.816Z,14.4
2017-04-24T11:15:59.647Z,14.24
2017-04-24T11:17:21.475Z,14.06
2017-04-24T11:18:43.946Z,13.81
2017-04-24T11:20:06.234Z,13.64
2017-04-24T11:21:28.448Z,13.44
2017-04-24T11:22:51.375Z,13.38
2017-04-24T11:24:13.203Z,13.28
2017-04-24T11:25:34.717Z,13.22
2017-04-24T11:26:56.543Z,13.12
2017-04-24T11:28:19.330Z,13.04
2017-04-24T11:29:41.529Z,13.22
2017-04-24T11:31:03.374Z,13.54
2017-04-24T11:32:25.882Z,13.85
2017-04-24T11:33:47.410Z,14.07
2017-04-24T11:35:09.909Z,14.45
2017-04-24T11:36:32.059Z,14.81
2017-04-24T11:37:54.634Z,14.98
2017-04-24T11:39:16.737Z,15.2
2017-04-24T11:40:38.638Z,15.47
2017-04-24T11:42:00.469Z,15.67
2017-04-24T11:43:22.941Z,15.9
2017-04-24T11:44:45.066Z,16.2
2017-04-24T11:46:07.215Z,16.63
2017-04-24T11:47:28.740Z,16.88
2017-04-24T11:48:51.207Z,16.91
2017-04-24T11:50:13.396Z,16.66
2017-04-24T11:51:35.864Z,16.45
2017-04-24T11:52:57.367Z,16.09
2017-04-24T11:54:19.228Z,15.68
2017-04-24T11:55:41.798Z,15.54
2017-04-24T11:57:03.724Z,15.34
2017-04-24T11:58:26.007Z,15.16
2017-04-24T11:59:48.557Z,15.03
2017-04-24T12:01:10.948Z,14.95
2017-04-24T12:02:33.095Z,14.99
2017-04-24T12:03:55.369Z,14.94
2017-04-24T12:05:17.538Z,14.91
2017-04-24T12:06:40.362Z,14.83
2017-04-24T12:08:02.182Z,14.91
2017-04-24T12:09:23.706Z,14.86
2017-04-24T12:10:45.695Z,14.95
2017-04-24T12:12:08.217Z,14.88
2017-04-24T12:13:30.389Z,15.06
2017-04-24T12:14:52.548Z,15.09
2017-04-24T12:16:14.511Z,15.06
2017-04-24T12:17:36.916Z,15.03
2017-04-24T12:18:58.768Z,14.88
2017-04-24T12:20:20.916Z,14.83
2017-04-24T12:21:42.935Z,14.78
2017-04-24T12:23:04.682Z,14.68
2017-04-24T12:24:27.125Z,14.78
2017-04-24T12:25:49.286Z,14.78
2017-04-24T12:27:11.627Z,14.75
2017-04-24T12:28:34.083Z,14.84
2017-04-24T12:29:55.611Z,14.75
2017-04-24T12:31:17.763Z,14.68
2017-04-24T12:32:39.704Z,14.65
2017-04-24T12:34:02.695Z,14.64
2017-04-24T12:35:24.854Z,14.69
2017-04-24T12:36:47.348Z,14.54
2017-04-24T12:38:09.277Z,14.54
2017-04-24T12:39:31.848Z,14.47
2017-04-24T12:40:54.409Z,14.2
2017-04-24T12:42:16.402Z,14.07
2017-04-24T12:43:37.613Z,13.77
2017-04-24T12:44:59.955Z,13.62
2017-04-24T12:46:22.420Z,13.41
2017-04-24T12:47:44.577Z,13.29
2017-04-24T12:49:06.412Z,13.14
2017-04-24T12:50:28.595Z,13.05
2017-04-24T12:51:50.412Z,12.97
2017-04-24T12:53:12.268Z,12.87
2017-04-24T12:54:34.424Z,12.78
2017-04-24T12:55:56.669Z,12.82
2017-04-24T12:57:18.810Z,12.82
2017-04-24T12:58:41.020Z,12.83
2017-04-24T13:00:02.548Z,12.9
2017-04-24T13:01:24.824Z,12.86
2017-04-24T13:02:46.658Z,12.78
2017-04-24T13:04:08.828Z,12.78
2017-04-24T13:05:31.164Z,12.75
2017-04-24T13:06:53.909Z,12.79
2017-04-24T13:08:15.818Z,12.78
2017-04-24T13:09:38.127Z,12.89
2017-04-24T13:10:59.951Z,12.96
2017-04-24T13:12:22.405Z,13.14
2017-04-24T13:13:44.876Z,13.26
2017-04-24T13:15:07.038Z,13.41
2017-04-24T13:16:29.649Z,13.38
2017-04-24T13:17:51.607Z,13.3
2017-04-24T13:19:14.116Z,13.3
2017-04-24T13:20:36.718Z,13.23
2017-04-24T13:21:58.567Z,13.17
2017-04-24T13:23:20.339Z,13.15
2017-04-24T13:24:42.571Z,13.39
2017-04-24T13:26:04.728Z,13.36
2017-04-24T13:27:26.865Z,13.26
2017-04-24T13:28:49.357Z,13.32
2017-04-24T13:30:11.573Z,13.22
2017-04-24T13:31:33.750Z,13.29
2017-04-24T13:32:56.028Z,13.32
2017-04-24T13:34:18.511Z,13.36
2017-04-24T13:35:40.675Z,13.23
2017-04-24T13:37:03.155Z,13.26
2017-04-24T13:38:25.319Z,13.15
2017-04-24T13:39:47.897Z,13.07
2017-04-24T13:41:10.068Z,13.1
2017-04-24T13:42:32.226Z,13.03
2017-04-24T13:43:54.071Z,13.03
2017-04-24T13:45:15.533Z,13
2017-04-24T13:46:37.987Z,12.95
2017-04-24T13:48:00.477Z,12.87
2017-04-24T13:49:22.663Z,12.71
2017-04-24T13:50:44.528Z,12.54
2017-04-24T13:52:06.711Z,12.56
2017-04-24T13:53:29.188Z,12.29
2017-04-24T13:54:51.349Z,12.23
2017-04-24T13:56:13.571Z,12.16
2017-04-24T13:57:35.853Z,12.1
2017-04-24T13:58:58.012Z,11.98
2017-04-24T14:00:19.227Z,11.75
2017-04-24T14:01:41.742Z,11.69
2017-04-24T14:03:03.604Z,11.52
2017-04-24T14:04:25.862Z,11.15
2017-04-24T14:05:48.360Z,10.73
2017-04-24T14:07:11.196Z,10.48
2017-04-24T14:08:33.079Z,10.45
2017-04-24T14:09:54.917Z,10.36
2017-04-24T14:11:17.138Z,10.3
2017-04-24T14:12:39.215Z,10.17
2017-04-24T14:14:01.839Z,10.12
2017-04-24T14:15:23.679Z,10.12
2017-04-24T14:16:45.832Z,10.02
2017-04-24T14:18:08.123Z,10.14
2017-04-24T14:19:30.288Z,10.08
2017-04-24T14:20:52.667Z,10.23
2017-04-24T14:22:14.222Z,10.15
2017-04-24T14:23:36.688Z,10.32
2017-04-24T14:24:57.891Z,10.41
2017-04-24T14:26:20.047Z,10.55
2017-04-24T14:27:42.194Z,10.73
2017-04-24T14:29:05.076Z,10.96
2017-04-24T14:30:27.580Z,11.19
2017-04-24T14:31:49.418Z,11.49
2017-04-24T14:33:11.564Z,11.75
2017-04-24T14:34:33.996Z,12.1
2017-04-24T14:35:56.189Z,12.32
2017-04-24T14:37:18.028Z,12.56
2017-04-24T14:38:40.278Z,12.79
2017-04-24T14:40:02.488Z,13.11
2017-04-24T14:41:24.689Z,13.28
2017-04-24T14:42:47.165Z,13.45
2017-04-24T14:44:09.380Z,13.52
2017-04-24T14:45:31.473Z,13.73
2017-04-24T14:46:53.936Z,13.91
2017-04-24T14:48:16.160Z,14.07
2017-04-24T14:49:37.967Z,14.25
2017-04-24T14:51:00.161Z,14.18
2017-04-24T14:52:22.019Z,14.27
2017-04-24T14:53:43.908Z,14.36
2017-04-24T14:55:05.829Z,14.39
2017-04-24T14:56:28.287Z,14.25
2017-04-24T14:57:50.315Z,14.18
2017-04-24T14:59:12.537Z,14.18
2017-04-24T15:00:34.378Z,14.06
2017-04-24T15:01:56.492Z,13.95
2017-04-24T15:03:18.021Z,13.92
2017-04-24T15:04:40.230Z,13.79
2017-04-24T15:06:02.541Z,13.78
2017-04-24T15:07:25.001Z,13.59
2017-04-24T15:08:46.862Z,13.63
2017-04-24T15:10:09.007Z,13.64
2017-04-24T15:11:31.189Z,13.63
2017-04-24T15:12:53.712Z,13.49
2017-04-24T15:14:15.903Z,13.46
2017-04-24T15:15:37.768Z,13.52
2017-04-24T15:17:00.039Z,13.52
2017-04-24T15:18:22.123Z,13.48
2017-04-24T15:19:44.428Z,13.39
2017-04-24T15:21:05.979Z,13.3
2017-04-24T15:22:27.545Z,13.2
2017-04-24T15:23:49.465Z,13.2
2017-04-24T15:25:11.640Z,13.3
2017-04-24T15:26:33.799Z,13.33
2017-04-24T15:27:55.337Z,13.3
2017-04-24T15:29:17.838Z,13.25
2017-04-24T15:30:39.379Z,13.2
2017-04-24T15:32:01.618Z,13.25
2017-04-24T15:33:22.836Z,13.04
2017-04-24T15:34:45.307Z,13.04
2017-04-24T15:36:07.513Z,12.83
2017-04-24T15:37:29.763Z,12.54
2017-04-24T15:38:52.077Z,12.38
2017-04-24T15:40:14.660Z,12.34
2017-04-24T15:41:37.128Z,12.24
2017-04-24T15:42:58.688Z,12.2
2017-04-24T15:44:20.681Z,12.19
2017-04-24T15:45:43.211Z,12.23
2017-04-24T15:47:05.468Z,12.32
2017-04-24T15:48:28.009Z,12.39
2017-04-24T15:49:49.831Z,12.56
2017-04-24T15:51:11.963Z,12.53
2017-04-24T15:52:34.546Z,12.54
2017-04-24T15:53:57.065Z,12.42
2017-04-24T15:55:19.260Z,12.45
2017-04-24T15:56:41.868Z,12.49
2017-04-24T15:58:04.167Z,12.6
2017-04-24T15:59:26.079Z,12.77
2017-04-24T16:00:48.578Z,12.64
2017-04-24T16:02:11.451Z,12.83
2017-04-24T16:03:34.030Z,12.87
2017-04-24T16:04:56.199Z,12.87
2017-04-24T16:06:18.422Z,12.83
2017-04-24T16:07:41.169Z,12.71
2017-04-24T16:09:03.348Z,12.54
2017-04-24T16:10:25.185Z,12.45
2017-04-24T16:11:46.764Z,12.34
2017-04-24T16:13:08.546Z,12.31
2017-04-24T16:14:30.727Z,12.19
2017-04-24T16:15:53.080Z,12.12
2017-04-24T16:17:15.255Z,11.94
2017-04-24T16:18:37.680Z,11.82
2017-04-24T16:20:31.830Z,11.58
2017-04-24T16:21:53.978Z,11.44
2017-04-24T16:23:16.465Z,11.29
2017-04-24T16:24:38.938Z,11.24
2017-04-24T16:26:01.138Z,11.07
2017-04-24T16:27:23.271Z,11
2017-04-24T16:28:45.538Z,10.88
2017-04-24T16:30:08.052Z,10.84
2017-04-24T16:31:29.915Z,10.73
2017-04-24T16:32:52.299Z,10.64
2017-04-24T16:34:14.752Z,10.59
2017-04-24T16:35:37.040Z,10.48
2017-04-24T16:36:59.558Z,10.38
2017-04-24T16:38:22.034Z,10.41
2017-04-24T16:39:44.828Z,10.32
2017-04-24T16:41:06.777Z,10.32
2017-04-24T16:42:29.271Z,10.12
2017-04-24T16:43:51.479Z,10.07
2017-04-24T16:45:13.936Z,9.99
2017-04-24T16:46:35.205Z,9.87
2017-04-24T16:47:57.368Z,9.81
2017-04-24T16:49:19.647Z,9.76
2017-04-24T16:50:41.465Z,9.66
2017-04-24T16:52:04.117Z,9.66
2017-04-24T16:53:26.751Z,9.66
2017-04-24T16:54:49.235Z,9.6
2017-04-24T16:56:11.967Z,9.58
2017-04-24T16:57:33.883Z,9.61
2017-04-24T16:59:28.378Z,9.57
2017-04-24T17:00:51.027Z,9.6
2017-04-24T17:02:13.553Z,9.6
2017-04-24T17:03:36.037Z,9.56
2017-04-24T17:04:58.250Z,9.53
2017-04-24T17:06:20.991Z,9.64
2017-04-24T17:07:43.152Z,9.6
2017-04-24T17:09:05.840Z,9.56
2017-04-24T17:10:28.183Z,9.65
2017-04-24T17:11:51.021Z,9.56
2017-04-24T17:13:13.538Z,9.64
2017-04-24T17:14:35.758Z,9.43
2017-04-24T17:16:01.387Z,9.11
2017-04-24T17:17:27.106Z,9.08
2017-04-24T17:18:49.850Z,9.08
2017-04-24T17:20:12.121Z,9.14
2017-04-24T17:21:34.309Z,8.96
2017-04-24T17:22:57.070Z,8.98
2017-04-24T17:24:19.259Z,9.08
2017-04-24T17:25:42.039Z,9.04
2017-04-24T17:27:04.326Z,8.95
2017-04-24T17:28:26.460Z,9.05
2017-04-24T17:29:48.770Z,8.95
2017-04-24T17:31:10.966Z,8.91
2017-04-24T17:32:33.466Z,8.94
2017-04-24T17:33:56.019Z,9.01
2017-04-24T17:35:18.192Z,9.02
2017-04-24T17:36:40.058Z,8.98
2017-04-24T17:38:02.328Z,9.11
2017-04-24T17:39:24.892Z,8.98
2017-04-24T17:40:47.073Z,9.01
2017-04-24T17:42:09.281Z,8.99
2017-04-24T17:43:31.534Z,8.95
2017-04-24T17:44:54.337Z,8.83
2017-04-24T17:46:16.177Z,8.83
2017-04-24T17:47:38.014Z,8.77
2017-04-24T17:49:00.669Z,8.81
2017-04-24T17:50:22.854Z,8.53
2017-04-24T17:51:44.745Z,8.37
2017-04-24T17:53:06.605Z,8.34
2017-04-24T17:54:29.096Z,8.3
2017-04-24T17:55:51.830Z,8.3
2017-04-24T17:57:14.034Z,8.25
2017-04-24T17:58:38.604Z,8.3
2017-04-24T18:00:01.809Z,8.25